Time;durP1;ratioP1;P1;durP2;ratioP2;P2;SDS_P1;SDS_P2;PMS_P1;PMS_P2;Temp;Humidity;BMP_temperature;BMP_pressure;BME280_temperature;BME280_humidity;BME280_pressure;Samples;Min_cycle;Max_cycle;Signal;HPM_P1;HPM_P2
2021/11/21 00:01:59;;;;;;;6.55;4.22;;;;;;;;;;5070143;28;20364;-67
2021/11/21 00:04:31;;;;;;;15.02;4.78;;;;;;;;;;5069721;28;20205;-68
2021/11/21 00:07:04;;;;;;;8.05;4.85;;;;;;;;;;5070118;28;20198;-67
2021/11/21 00:09:31;;;;;;;6.97;3.90;;;;;;;;;;5069072;28;20290;-67
2021/11/21 00:11:59;;;;;;;5.72;4.50;;;;;;;;;;5069369;28;20190;-68
2021/11/21 00:14:28;;;;;;;4.50;3.60;;;;;;;;;;5068974;28;20221;-67
2021/11/21 00:16:57;;;;;;;5.20;3.60;;;;;;;;;;5069977;28;20236;-67
2021/11/21 00:19:24;;;;;;;8.70;4.68;;;;;;;;;;5070485;28;20194;-67
2021/11/21 00:21:55;;;;;;;5.85;3.88;;;;;;;;;;5073015;28;20198;-69
2021/11/21 00:24:22;;;;;;;4.20;3.22;;;;;;;;;;5072483;28;20220;-67
2021/11/21 00:26:53;;;;;;;4.90;3.45;;;;;;;;;;5071568;28;20324;-67
2021/11/21 00:29:21;;;;;;;5.38;4.35;;;;;;;;;;5072550;28;20218;-66
2021/11/21 00:31:49;;;;;;;5.15;3.88;;;;;;;;;;5070264;28;20274;-67
2021/11/21 00:34:20;;;;;;;4.80;3.00;;;;;;;;;;5072054;28;20222;-67
2021/11/21 00:36:48;;;;;;;4.47;2.90;;;;;;;;;;5072713;28;20273;-67
2021/11/21 00:39:15;;;;;;;4.75;3.50;;;;;;;;;;5072650;28;20182;-66
2021/11/21 00:41:42;;;;;;;4.32;3.40;;;;;;;;;;5072940;28;20244;-66
2021/11/21 00:44:10;;;;;;;7.35;4.00;;;;;;;;;;5071327;28;20289;-66
2021/11/21 00:46:39;;;;;;;10.80;4.90;;;;;;;;;;5072864;28;20217;-67
2021/11/21 00:49:14;;;;;;;5.50;4.78;;;;;;;;;;5072867;28;20661;-67
2021/11/21 00:51:41;;;;;;;6.90;4.13;;;;;;;;;;5073220;28;20687;-67
2021/11/21 00:54:23;;;;;;;7.18;5.40;;;;;;;;;;5068111;28;20228;-68
2021/11/21 00:56:52;;;;;;;9.43;4.35;;;;;;;;;;5072519;28;20242;-67
2021/11/21 00:59:20;;;;;;;5.28;4.38;;;;;;;;;;5068740;28;20699;-67
2021/11/21 01:01:48;;;;;;;11.73;5.30;;;;;;;;;;5073082;28;20206;-67
2021/11/21 01:04:17;;;;;;;5.32;4.53;;;;;;;;;;5072502;28;20183;-67
2021/11/21 01:06:44;;;;;;;4.68;3.80;;;;;;;;;;5071483;28;20298;-67
2021/11/21 01:09:12;;;;;;;7.75;4.80;;;;;;;;;;5072854;28;20289;-66
2021/11/21 01:11:43;;;;;;;8.93;5.03;;;;;;;;;;5072427;28;20695;-67
2021/11/21 01:14:13;;;;;;;6.63;5.18;;;;;;;;;;5072392;28;20301;-67
2021/11/21 01:16:41;;;;;;;5.40;4.45;;;;;;;;;;5068555;28;20236;-67
2021/11/21 01:19:08;;;;;;;7.40;4.35;;;;;;;;;;5072186;28;20193;-67
2021/11/21 01:21:38;;;;;;;5.35;4.05;;;;;;;;;;5072502;28;20268;-66
2021/11/21 01:24:05;;;;;;;3.58;2.88;;;;;;;;;;5068468;28;20194;-67
2021/11/21 01:26:33;;;;;;;4.10;3.70;;;;;;;;;;5072360;28;20217;-67
2021/11/21 01:29:01;;;;;;;5.72;3.92;;;;;;;;;;5070793;28;20278;-66
2021/11/21 01:31:29;;;;;;;4.65;3.85;;;;;;;;;;5070848;28;20632;-67
2021/11/21 01:33:56;;;;;;;5.93;4.60;;;;;;;;;;5071894;28;20190;-67
2021/11/21 01:36:24;;;;;;;6.68;4.00;;;;;;;;;;5072227;28;20221;-67
2021/11/21 01:38:55;;;;;;;4.90;4.20;;;;;;;;;;5071614;28;20192;-67
2021/11/21 01:41:23;;;;;;;5.15;3.85;;;;;;;;;;5074060;28;20186;-67
2021/11/21 01:43:50;;;;;;;4.40;3.60;;;;;;;;;;5073263;28;20216;-67
2021/11/21 01:46:18;;;;;;;4.15;3.33;;;;;;;;;;5073704;28;20217;-68
2021/11/21 01:48:45;;;;;;;6.88;4.18;;;;;;;;;;5073726;28;20186;-68
2021/11/21 01:51:13;;;;;;;4.95;3.97;;;;;;;;;;5073634;28;20364;-67
2021/11/21 01:53:42;;;;;;;4.28;3.00;;;;;;;;;;5073120;28;20217;-67
2021/11/21 01:56:11;;;;;;;5.03;4.10;;;;;;;;;;5073621;28;20194;-67
2021/11/21 01:58:40;;;;;;;6.97;4.60;;;;;;;;;;5073371;28;20190;-67
2021/11/21 02:01:11;;;;;;;5.85;3.92;;;;;;;;;;5073475;28;20190;-67
2021/11/21 02:03:41;;;;;;;6.63;4.38;;;;;;;;;;5072936;28;20195;-67
2021/11/21 02:06:09;;;;;;;5.45;3.80;;;;;;;;;;5072845;28;20245;-66
2021/11/21 02:08:37;;;;;;;4.55;3.78;;;;;;;;;;5073210;28;20606;-67
2021/11/21 02:11:08;;;;;;;5.63;3.50;;;;;;;;;;5073026;28;20277;-67
2021/11/21 02:13:37;;;;;;;5.07;3.25;;;;;;;;;;5073227;28;20226;-67
2021/11/21 02:16:08;;;;;;;5.55;3.97;;;;;;;;;;5072859;28;20193;-67
2021/11/21 02:18:36;;;;;;;5.00;3.72;;;;;;;;;;5072946;28;20186;-67
2021/11/21 02:21:05;;;;;;;5.80;4.25;;;;;;;;;;5072755;28;20193;-67
2021/11/21 02:23:34;;;;;;;10.18;3.60;;;;;;;;;;5072592;28;20277;-67
2021/11/21 02:26:04;;;;;;;4.78;3.65;;;;;;;;;;5072844;28;20272;-67
2021/11/21 02:28:32;;;;;;;5.25;4.13;;;;;;;;;;5072296;28;20200;-67
2021/11/21 02:31:00;;;;;;;8.15;3.90;;;;;;;;;;5072918;28;20589;-67
2021/11/21 02:33:27;;;;;;;7.20;4.13;;;;;;;;;;5072321;28;20194;-66
2021/11/21 02:35:57;;;;;;;8.48;3.85;;;;;;;;;;5072799;28;20194;-66
2021/11/21 02:38:29;;;;;;;4.30;3.42;;;;;;;;;;5072026;28;20236;-66
2021/11/21 02:40:58;;;;;;;7.47;4.32;;;;;;;;;;5072893;28;20194;-67
2021/11/21 02:43:26;;;;;;;4.20;3.25;;;;;;;;;;5071920;28;20193;-67
2021/11/21 02:45:59;;;;;;;10.15;3.45;;;;;;;;;;5072349;28;20213;-67
2021/11/21 02:48:28;;;;;;;11.82;4.10;;;;;;;;;;5072161;28;20194;-67
2021/11/21 02:50:56;;;;;;;5.78;4.32;;;;;;;;;;5052465;28;20191;-67
2021/11/21 02:53:30;;;;;;;6.88;4.22;;;;;;;;;;5052293;28;20277;-67
2021/11/21 02:56:00;;;;;;;7.05;3.97;;;;;;;;;;5052386;28;20187;-67
2021/11/21 02:58:31;;;;;;;12.48;5.32;;;;;;;;;;5052181;28;20195;-66
2021/11/21 03:00:59;;;;;;;9.40;4.10;;;;;;;;;;5071789;28;20186;-66
2021/11/21 03:03:30;;;;;;;11.95;3.83;;;;;;;;;;5072051;28;20224;-66
2021/11/21 03:06:01;;;;;;;6.65;4.65;;;;;;;;;;5071406;28;20205;-67
2021/11/21 03:08:28;;;;;;;6.45;3.67;;;;;;;;;;5072259;28;20205;-67
2021/11/21 03:10:57;;;;;;;7.45;4.22;;;;;;;;;;5071618;28;21027;-67
2021/11/21 03:13:28;;;;;;;4.35;3.70;;;;;;;;;;5071351;28;20689;-67
2021/11/21 03:15:56;;;;;;;5.05;3.30;;;;;;;;;;5071881;28;20225;-66
2021/11/21 03:18:23;;;;;;;4.07;3.55;;;;;;;;;;5071814;28;20550;-68
2021/11/21 03:20:53;;;;;;;6.32;3.42;;;;;;;;;;5052970;28;20202;-67
2021/11/21 03:23:22;;;;;;;5.13;3.80;;;;;;;;;;5071938;28;20252;-67
2021/11/21 03:25:50;;;;;;;4.72;3.33;;;;;;;;;;5071139;28;20602;-66
2021/11/21 03:28:17;;;;;;;5.55;3.50;;;;;;;;;;5071845;28;20194;-67
2021/11/21 03:30:49;;;;;;;6.90;4.80;;;;;;;;;;5071303;28;20212;-67
2021/11/21 03:33:24;;;;;;;7.22;4.47;;;;;;;;;;5071990;28;20339;-67
2021/11/21 03:35:55;;;;;;;5.32;3.85;;;;;;;;;;5071654;28;20227;-67
2021/11/21 03:38:22;;;;;;;6.28;4.25;;;;;;;;;;5071754;28;20186;-66
2021/11/21 03:40:50;;;;;;;12.93;4.07;;;;;;;;;;5071280;28;20194;-67
2021/11/21 03:43:18;;;;;;;4.68;3.35;;;;;;;;;;5071702;28;20190;-66
2021/11/21 03:45:46;;;;;;;8.70;4.05;;;;;;;;;;5071143;28;20275;-66
2021/11/21 03:48:16;;;;;;;4.43;3.50;;;;;;;;;;5072029;28;20236;-67
2021/11/21 03:50:43;;;;;;;6.40;3.75;;;;;;;;;;5071161;28;20533;-67
2021/11/21 03:53:11;;;;;;;5.18;3.47;;;;;;;;;;5071688;28;20225;-67
2021/11/21 03:55:38;;;;;;;5.15;3.83;;;;;;;;;;5075335;28;20197;-68
2021/11/21 03:58:08;;;;;;;6.00;4.43;;;;;;;;;;5075293;28;20194;-66
2021/11/21 04:00:36;;;;;;;5.47;3.80;;;;;;;;;;5075822;28;20194;-67
2021/11/21 04:03:05;;;;;;;4.72;3.50;;;;;;;;;;5075359;28;20190;-67
2021/11/21 04:05:34;;;;;;;3.83;3.13;;;;;;;;;;5076002;28;20561;-66
2021/11/21 04:08:02;;;;;;;5.32;3.38;;;;;;;;;;5074911;28;20218;-67
2021/11/21 04:10:30;;;;;;;5.75;4.00;;;;;;;;;;5075555;28;20201;-67
2021/11/21 04:12:58;;;;;;;4.18;3.78;;;;;;;;;;5074998;28;20518;-66
2021/11/21 04:15:27;;;;;;;5.10;3.38;;;;;;;;;;5075546;28;20721;-66
2021/11/21 04:18:01;;;;;;;3.70;3.17;;;;;;;;;;5074951;28;20220;-67
2021/11/21 04:20:31;;;;;;;3.83;2.70;;;;;;;;;;5075501;28;20553;-66
2021/11/21 04:23:00;;;;;;;4.07;2.92;;;;;;;;;;5074846;28;20186;-66
2021/11/21 04:25:28;;;;;;;4.57;3.25;;;;;;;;;;5075231;28;20197;-67
2021/11/21 04:27:56;;;;;;;3.65;2.80;;;;;;;;;;5075054;28;20210;-66
2021/11/21 04:30:23;;;;;;;5.22;3.83;;;;;;;;;;5075186;28;20191;-66
2021/11/21 04:32:51;;;;;;;5.63;3.72;;;;;;;;;;5074803;28;20186;-67
2021/11/21 04:35:20;;;;;;;4.97;3.63;;;;;;;;;;5074703;28;20195;-66
2021/11/21 04:37:50;;;;;;;4.20;3.50;;;;;;;;;;5075146;28;20244;-66
2021/11/21 04:40:19;;;;;;;5.30;3.33;;;;;;;;;;5074187;28;20546;-67
2021/11/21 04:42:50;;;;;;;5.90;3.92;;;;;;;;;;5075113;28;20213;-67
2021/11/21 04:45:18;;;;;;;4.55;3.15;;;;;;;;;;5074849;28;20240;-66
2021/11/21 04:47:48;;;;;;;5.43;3.65;;;;;;;;;;5075156;28;20573;-67
2021/11/21 04:50:16;;;;;;;4.85;3.75;;;;;;;;;;5074307;28;20231;-67
2021/11/21 04:52:47;;;;;;;5.00;3.53;;;;;;;;;;5074712;28;20190;-67
2021/11/21 04:55:15;;;;;;;6.07;3.65;;;;;;;;;;5074286;28;20182;-67
2021/11/21 04:57:44;;;;;;;4.60;4.18;;;;;;;;;;5074797;28;20190;-66
2021/11/21 05:00:17;;;;;;;4.07;3.13;;;;;;;;;;5074206;28;20190;-67
2021/11/21 05:02:45;;;;;;;5.57;3.58;;;;;;;;;;5074590;28;20190;-67
2021/11/21 05:05:12;;;;;;;5.00;3.90;;;;;;;;;;5074081;28;20201;-67
2021/11/21 05:07:40;;;;;;;5.10;3.28;;;;;;;;;;5074365;28;20217;-68
2021/11/21 05:10:08;;;;;;;3.90;3.05;;;;;;;;;;5073841;28;20213;-67
2021/11/21 05:12:40;;;;;;;3.45;2.85;;;;;;;;;;5074320;28;20261;-67
2021/11/21 05:15:11;;;;;;;4.07;3.17;;;;;;;;;;5074337;28;20183;-66
2021/11/21 05:17:39;;;;;;;4.47;3.33;;;;;;;;;;5074510;28;20555;-67
2021/11/21 05:20:07;;;;;;;4.05;2.55;;;;;;;;;;5074423;28;20190;-67
2021/11/21 05:22:37;;;;;;;4.18;3.38;;;;;;;;;;5074263;28;20190;-67
2021/11/21 05:25:04;;;;;;;5.38;3.70;;;;;;;;;;5073289;28;20706;-67
2021/11/21 05:27:32;;;;;;;4.15;3.60;;;;;;;;;;5073980;28;20217;-67
2021/11/21 05:30:00;;;;;;;4.72;4.00;;;;;;;;;;5074156;28;20237;-66
2021/11/21 05:32:29;;;;;;;5.50;3.38;;;;;;;;;;5073711;28;20225;-67
2021/11/21 05:34:57;;;;;;;5.88;3.30;;;;;;;;;;5074078;28;20198;-67
2021/11/21 05:37:26;;;;;;;4.78;3.20;;;;;;;;;;5073591;28;20641;-69
2021/11/21 05:39:56;;;;;;;3.60;2.85;;;;;;;;;;5073589;28;20186;-67
2021/11/21 05:42:24;;;;;;;7.45;4.05;;;;;;;;;;5073562;28;20190;-67
2021/11/21 05:44:55;;;;;;;5.05;3.03;;;;;;;;;;5074240;28;20720;-66
2021/11/21 05:47:26;;;;;;;4.25;3.60;;;;;;;;;;5073376;28;20221;-66
2021/11/21 05:49:57;;;;;;;5.10;4.30;;;;;;;;;;5073216;28;20649;-66
2021/11/21 05:52:25;;;;;;;5.55;4.40;;;;;;;;;;5073712;28;20579;-67
2021/11/21 05:54:53;;;;;;;7.43;4.55;;;;;;;;;;5073304;28;20198;-67
2021/11/21 05:57:20;;;;;;;7.47;5.35;;;;;;;;;;5073599;28;20194;-66
2021/11/21 05:59:48;;;;;;;6.20;4.80;;;;;;;;;;5072773;28;20186;-67
2021/11/21 06:02:15;;;;;;;7.22;4.97;;;;;;;;;;5073228;28;20189;-67
2021/11/21 06:04:50;;;;;;;6.38;4.10;;;;;;;;;;5073459;28;20280;-67
2021/11/21 06:07:19;;;;;;;5.47;4.00;;;;;;;;;;5073025;28;20604;-66
2021/11/21 06:09:50;;;;;;;5.28;4.10;;;;;;;;;;5072720;28;20653;-67
2021/11/21 06:12:18;;;;;;;5.20;3.72;;;;;;;;;;5072648;28;20186;-66
2021/11/21 06:14:47;;;;;;;6.63;4.85;;;;;;;;;;5072690;28;20190;-66
2021/11/21 06:17:15;;;;;;;7.25;4.68;;;;;;;;;;5072767;28;20264;-66
2021/11/21 06:19:45;;;;;;;7.50;4.47;;;;;;;;;;5072764;28;20297;-67
2021/11/21 06:22:13;;;;;;;5.90;3.83;;;;;;;;;;5073072;28;20284;-66
2021/11/21 06:24:42;;;;;;;5.43;4.35;;;;;;;;;;5072515;28;20182;-66
2021/11/21 06:27:10;;;;;;;6.10;3.97;;;;;;;;;;5073073;28;20222;-67
2021/11/21 06:29:38;;;;;;;6.75;3.88;;;;;;;;;;5072556;28;20183;-66
2021/11/21 06:32:06;;;;;;;7.30;4.35;;;;;;;;;;5072956;28;20293;-66
2021/11/21 06:34:34;;;;;;;5.95;3.75;;;;;;;;;;5072613;28;20178;-66
2021/11/21 06:37:02;;;;;;;9.23;4.78;;;;;;;;;;5072741;28;20197;-67
2021/11/21 06:39:30;;;;;;;5.50;4.68;;;;;;;;;;5072146;28;20205;-66
2021/11/21 06:41:59;;;;;;;8.15;5.00;;;;;;;;;;5072778;28;20281;-66
2021/11/21 06:44:27;;;;;;;6.97;4.88;;;;;;;;;;5072174;28;20190;-66
2021/11/21 06:46:54;;;;;;;9.88;5.78;;;;;;;;;;5072770;28;20591;-67
2021/11/21 06:49:22;;;;;;;6.72;5.88;;;;;;;;;;5072199;28;20201;-67
2021/11/21 06:51:50;;;;;;;8.90;5.40;;;;;;;;;;5072565;28;20194;-67
2021/11/21 06:54:18;;;;;;;7.00;5.32;;;;;;;;;;5071951;28;20265;-68
2021/11/21 06:56:49;;;;;;;8.45;5.72;;;;;;;;;;5072468;28;20217;-67
2021/11/21 06:59:18;;;;;;;9.52;4.97;;;;;;;;;;5071603;28;20200;-67
2021/11/21 07:01:46;;;;;;;7.30;5.07;;;;;;;;;;5072391;28;20379;-68
2021/11/21 07:04:13;;;;;;;5.35;4.22;;;;;;;;;;5072156;28;20221;-67
2021/11/21 07:06:42;;;;;;;5.47;4.20;;;;;;;;;;5072357;28;20196;-67
2021/11/21 07:09:19;;;;;;;5.78;4.80;;;;;;;;;;5071871;28;20603;-68
2021/11/21 07:11:48;;;;;;;6.07;4.55;;;;;;;;;;5072120;28;20549;-67
2021/11/21 07:14:15;;;;;;;9.95;4.75;;;;;;;;;;5071610;28;20209;-67
2021/11/21 07:16:46;;;;;;;7.00;5.00;;;6.90;91.20;;;;;;5072331;28;20256;-67
2021/11/21 07:19:17;;;;;;;7.80;6.45;;;3.20;80.70;;;;;;5071947;28;20186;-67
2021/11/21 07:21:45;;;;;;;8.60;6.38;;;;;;;;;;5072440;28;20201;-67
2021/11/21 07:24:16;;;;;;;7.97;5.70;;;;;;;;;;5068211;28;20276;-67
2021/11/21 07:26:47;;;;;;;8.50;6.20;;;;;;;;;;5070663;28;20657;-67
2021/11/21 07:29:17;;;;;;;9.20;8.10;;;;;;;;;;5068929;28;20220;-67
2021/11/21 07:31:49;;;;;;;20.08;13.65;;;;;;;;;;5070374;28;20194;-68
2021/11/21 07:34:21;;;;;;;15.05;11.82;;;;;;;;;;5070097;28;20178;-67
2021/11/21 07:36:49;;;;;;;13.10;10.30;;;;;;;;;;5070475;28;20189;-67
2021/11/21 07:39:22;;;;;;;9.13;7.30;;;;;;;;;;5069047;28;20633;-67
2021/11/21 07:41:55;;;;;;;14.90;8.70;;;;;;;;;;5070488;28;20214;-68
2021/11/21 07:44:26;;;;;;;9.77;5.78;;;;;;;;;;5069958;28;20212;-68
2021/11/21 07:46:59;;;;;;;8.63;6.75;;;;;;;;;;5069894;28;20186;-68
2021/11/21 07:49:27;;;;;;;7.28;5.90;;;;;;;;;;5069741;28;20197;-68
2021/11/21 07:51:57;;;;;;;7.90;6.57;;;;;;;;;;5070230;28;20212;-68
2021/11/21 07:54:24;;;;;;;8.50;6.35;;;;;;;;;;5070106;28;20201;-68
2021/11/21 07:56:55;;;;;;;12.30;7.18;;;;;;;;;;5070088;28;20198;-68
2021/11/21 07:59:27;;;;;;;17.50;11.63;;;;;;;;;;5069524;28;20209;-68
2021/11/21 08:02:00;;;;;;;13.55;10.02;;;;;;;;;;5070286;28;20196;-69
2021/11/21 08:04:28;;;;;;;11.02;7.80;;;;;;;;;;5065214;28;20182;-68
2021/11/21 08:07:05;;;;;;;9.02;6.82;;;;;;;;;;5069956;28;20576;-68
2021/11/21 08:09:36;;;;;;;6.88;5.10;;;;;;;;;;5069244;28;20700;-68
2021/11/21 08:12:11;;;;;;;7.30;5.32;;;;;;;;;;5070096;28;20222;-68
2021/11/21 08:14:44;;;;;;;8.00;5.75;;;;;;;;;;5069538;28;20231;-70
2021/11/21 08:17:13;;;;;;;6.75;6.15;;;;;;;;;;5066511;28;20201;-69
2021/11/21 08:19:41;;;;;;;8.48;7.30;;;;;;;;;;5069847;28;20265;-68
2021/11/21 08:22:11;;;;;;;7.78;6.05;;;;;;;;;;5069731;28;20201;-69
2021/11/21 08:24:41;;;;;;;12.02;7.75;;;;;;;;;;5065613;28;20582;-69
2021/11/21 08:27:13;;;;;;;8.10;7.25;;;;;;;;;;5070129;28;20195;-69
2021/11/21 08:29:41;;;;;;;8.80;7.88;;;;;;;;;;5069465;28;20178;-69
2021/11/21 08:32:10;;;;;;;11.32;8.20;;;;;;;;;;5070012;28;20194;-69
2021/11/21 08:34:41;;;;;;;13.05;9.57;;;;;;;;;;5069697;28;20557;-69
2021/11/21 08:37:09;;;;;;;9.43;7.72;;;;;;;;;;5069862;28;20190;-72
2021/11/21 08:39:37;;;;;;;7.47;6.70;;;;;;;;;;5066170;28;20183;-69
2021/11/21 08:42:06;;;;;;;9.23;7.45;;;;;;;;;;5073621;28;20198;-68
2021/11/21 08:44:35;;;;;;;9.15;7.72;;;;;;;;;;5072978;28;20182;-69
2021/11/21 08:47:03;;;;;;;9.25;6.78;;;;;;;;;;5073340;28;20502;-69
2021/11/21 08:49:36;;;;;;;7.13;6.43;;;;;;;;;;5072811;28;20206;-69
2021/11/21 08:52:06;;;;;;;13.85;6.60;;;;;;;;;;5073468;28;20224;-69
2021/11/21 08:54:34;;;;;;;7.45;6.45;;;;;;;;;;5067763;28;20651;-70
2021/11/21 08:57:08;;;;;;;7.15;5.72;;;;;;;;;;5071599;28;20186;-69
2021/11/21 08:59:38;;;;;;;7.53;5.68;;;;;;;;;;5073312;28;20725;-69
2021/11/21 09:02:09;;;;;;;9.80;6.95;;;;;;;;;;5072737;28;20644;-69
2021/11/21 09:04:38;;;;;;;12.30;6.13;;;;;;;;;;5072761;28;20557;-70
2021/11/21 09:07:13;;;;;;;7.90;5.97;;;;;;;;;;5072454;28;20190;-69
2021/11/21 09:09:40;;;;;;;12.40;6.37;;;;;;;;;;5069392;28;20301;-69
2021/11/21 09:12:11;;;;;;;8.38;6.20;;;;;;;;;;5072471;28;20440;-69
2021/11/21 09:14:40;;;;;;;4.88;3.78;;;;;;;;;;5072033;28;20218;-69
2021/11/21 09:17:07;;;;;;;5.50;4.43;;;;;;;;;;5072950;28;20244;-69
2021/11/21 09:19:35;;;;;;;5.20;3.50;;;;;;;;;;5073458;28;20515;-69
2021/11/21 09:22:02;;;;;;;5.13;3.80;;;3.40;80.50;;;;;;5072900;28;20463;-68
2021/11/21 09:24:33;;;;;;;5.50;4.80;;;;;;;;;;5072303;28;20428;-69
2021/11/21 09:27:01;;;;;;;6.10;4.80;;;;;;;;;;5071857;28;20520;-68
2021/11/21 09:29:28;;;;;;;6.50;4.57;;;;;;;;;;5071936;28;20476;-68
2021/11/21 09:31:56;;;;;;;12.70;6.97;;;;;;;;;;5072360;28;20517;-69
2021/11/21 09:34:39;;;;;;;5.07;4.27;;;;;;;;;;5072180;28;20452;-68
2021/11/21 09:37:09;;;;;;;6.03;5.10;;;;;;;;;;5071826;28;20497;-69
2021/11/21 09:39:38;;;;;;;6.37;5.13;;;;;;;;;;5072577;28;20512;-69
2021/11/21 09:42:05;;;;;;;6.27;5.50;;;;;;;;;;5073066;28;20444;-69
2021/11/21 09:44:35;;;;;;;8.40;4.70;;;;;;;;;;5070775;28;21271;-70
2021/11/21 09:47:03;;;;;;;6.83;5.30;;;;;;;;;;5068806;28;20433;-69
2021/11/21 09:49:30;;;;;;;6.17;5.57;;;;;;;;;;5071929;28;20484;-69
2021/11/21 09:51:58;;;;;;;5.90;4.43;;;;;;;;;;5071339;28;20435;-69
2021/11/21 09:54:26;;;;;;;5.10;4.13;;;;;;;;;;5070715;28;21012;-69
2021/11/21 09:56:55;;;;;;;6.83;5.13;;;;;;;;;;5070650;28;20683;-69
2021/11/21 09:59:41;;;;;;;5.57;4.43;;;;;;;;;;5072567;28;20428;-68
2021/11/21 10:02:17;;;;;;;5.50;4.43;;;;;;;;;;5072147;28;20433;-69
2021/11/21 10:04:45;;;;;;;8.13;4.80;;;;;;;;;;5071782;28;20428;-69
2021/11/21 10:07:23;;;;;;;5.60;5.00;;;15.90;47.00;;;;;;5071939;28;20436;-68
2021/11/21 10:09:54;;;;;;;5.77;4.37;;;;;;;;;;5070857;28;20941;-68
2021/11/21 10:12:23;;;;;;;5.20;4.60;;;;;;;;;;5067447;28;20961;-68
2021/11/21 10:14:55;;;;;;;5.80;4.20;;;;;;;;;;5032080;28;20533;-68
2021/11/21 10:17:23;;;;;;;6.20;4.23;;;;;;;;;;5031110;28;20960;-68
2021/11/21 10:20:03;;;;;;;6.60;4.37;;;;;;;;;;5027873;28;20515;-68
2021/11/21 10:22:46;;;;;;;5.53;4.40;;;;;;;;;;5031518;28;20431;-68
2021/11/21 10:25:15;;;;;;;5.60;4.13;;;;;;;;;;5032154;28;20444;-68
2021/11/21 10:27:51;;;;;;;7.03;5.17;;;;;;;;;;5031375;28;20937;-69
2021/11/21 10:30:19;;;;;;;5.53;4.87;;;;;;;;;;5028114;28;20456;-68
2021/11/21 10:32:55;;;;;;;5.53;4.00;;;;;;;;;;5030667;28;20449;-69
2021/11/21 10:35:24;;;;;;;6.57;5.00;;;;;;;;;;5030627;28;20438;-68
2021/11/21 10:37:57;;;;;;;6.10;4.97;;;;;;;;;;5031299;28;20848;-68
2021/11/21 10:40:34;;;;;;;6.67;5.07;;;;;;;;;;5030889;28;20492;-68
2021/11/21 10:43:09;;;;;;;5.17;4.20;;;;;;;;;;5028019;28;20442;-68
2021/11/21 10:45:37;;;;;;;6.43;5.23;;;;;;;;;;5030870;28;20912;-69
2021/11/21 10:48:09;;;;;;;5.73;5.10;;;;;;;;;;5030250;28;20446;-68
2021/11/21 10:50:37;;;;;;;6.47;4.90;;;;;;;;;;5031304;28;20454;-68
2021/11/21 10:53:12;;;;;;;6.53;5.10;;;;;;;;;;5031025;28;20843;-68
2021/11/21 10:55:41;;;;;;;5.80;5.30;;;;;;;;;;5027315;28;20480;-68
2021/11/21 10:58:13;;;;;;;7.93;6.80;;;;;;;;;;5030774;28;20443;-71
2021/11/21 11:00:43;;;;;;;6.80;5.30;;;;;;;;;;5030210;28;20435;-69
2021/11/21 11:03:17;;;;;;;8.97;5.07;;;;;;;;;;5027267;28;20814;-69
2021/11/21 11:05:47;;;;;;;4.93;3.93;;;;;;;;;;5031567;28;20446;-68
2021/11/21 11:08:25;;;;;;;8.97;6.00;;;;;;;;;;5030463;28;20489;-69
2021/11/21 11:10:55;;;;;;;12.70;7.50;;;;;;;;;;5031521;28;20488;-68
2021/11/21 11:13:26;;;;;;;8.50;5.63;;;;;;;;;;5046211;28;20456;-69
2021/11/21 11:15:57;;;;;;;9.80;6.00;;;;;;;;;;5069284;28;20602;-68
2021/11/21 11:18:41;;;;;;;8.30;4.60;;;;;;;;;;5069676;28;20448;-69
2021/11/21 11:21:13;;;;;;;5.57;4.40;;;;;;;;;;5070241;28;20772;-68
2021/11/21 11:23:41;;;;;;;3.97;3.30;;;;;;;;;;5070044;28;20432;-69
2021/11/21 11:26:10;;;;;;;4.17;2.47;;;;;;;;;;5070771;28;20464;-70
2021/11/21 11:28:45;;;;;;;4.17;2.97;;;;;;;;;;5070811;28;21065;-70
2021/11/21 11:31:23;;;;;;;3.43;2.27;;;;;;;;;;5070138;28;20436;-69
2021/11/21 11:33:52;;;;;;;2.93;2.50;;;;;;;;;;5070497;28;20455;-69
2021/11/21 11:36:29;;;;;;;4.03;2.60;;;;;;;;;;5070457;28;20533;-68
2021/11/21 11:39:01;;;;;;;3.80;2.90;;;;;;;;;;5070554;28;20486;-68
2021/11/21 11:41:29;;;;;;;3.77;2.60;;;;;;;;;;5070354;28;20475;-69
2021/11/21 11:44:00;;;;;;;3.10;2.20;;;;;;;;;;5070316;28;20436;-68
2021/11/21 11:46:32;;;;;;;4.00;2.73;;;;;;;;;;5070423;28;20527;-69
2021/11/21 11:49:03;;;;;;;3.10;2.57;;;;;;;;;;5070767;28;20496;-68
2021/11/21 11:51:49;;;;;;;4.73;3.37;;;;;;;;;;5069983;28;20846;-68
2021/11/21 11:54:24;;;;;;;3.80;3.23;;;;;;;;;;5069777;28;20435;-69
2021/11/21 11:56:56;;;;;;;3.90;3.27;;;;;;;;;;5070288;28;20448;-69
2021/11/21 11:59:32;;;;;;;5.10;4.03;;;;;;;;;;5070245;28;20436;-70
2021/11/21 12:02:00;;;;;;;4.40;3.70;;;;;;;;;;5066788;28;20942;-68
2021/11/21 12:04:47;;;;;;;4.30;3.77;;;;;;;;;;5070275;28;20511;-69
2021/11/21 12:07:21;;;;;;;5.10;3.80;;;;;;;;;;5070084;28;20432;-68
2021/11/21 12:09:57;;;;;;;4.43;3.83;;;;;;;;;;5069259;28;20888;-68
2021/11/21 12:12:46;;;;;;;5.70;4.70;;;;;;;;;;5070140;28;20448;-69
2021/11/21 12:15:34;;;;;;;4.57;3.73;;;;;;;;;;5071006;28;20436;-69
2021/11/21 12:18:05;;;;;;;4.90;3.40;;;;;;;;;;5069837;28;20436;-69
2021/11/21 12:20:50;;;;;;;5.43;4.00;;;;;;;;;;5073833;28;20440;-69
2021/11/21 12:23:36;;;;;;;4.70;3.77;;;;;;;;;;5061611;28;20459;-71
2021/11/21 12:26:22;;;;;;;4.50;3.73;;;;;;;;;;5067390;28;20448;-69
2021/11/21 12:29:00;;;;;;;6.03;3.33;;;;;;;;;;5065051;28;21343;-70
2021/11/21 12:31:35;;;;;;;4.50;3.63;;;;;;;;;;5061365;28;20506;-69
2021/11/21 12:34:23;;;;;;;4.90;3.60;;;;;;;;;;5035644;28;20445;-69
2021/11/21 12:37:11;;;;;;;5.20;4.03;;;;;;;;;;5047465;28;20486;-69
2021/11/21 12:39:41;;;;;;;4.97;3.83;;;;;;;;;;5069853;28;20501;-69
2021/11/21 12:42:10;;;;;;;5.40;3.87;;;;;;;;;;5068225;28;20513;-69
2021/11/21 12:44:40;;;;;;;6.57;4.13;;;;;;;;;;5071878;28;20459;-69
2021/11/21 12:47:12;;;;;;;4.90;3.50;;;;;;;;;;5050135;28;20490;-69
2021/11/21 12:49:41;;;;;;;5.10;3.93;;;;;;;;;;5053921;28;20880;-70
2021/11/21 12:52:09;;;;;;;5.83;3.73;;;;;;;;;;5048928;28;20444;-68
2021/11/21 12:54:40;;;;;;;8.40;4.27;;;;;;;;;;5071842;28;20459;-68
2021/11/21 12:57:14;;;;;;;5.20;3.40;;;;;;;;;;5050412;28;20528;-69
2021/11/21 12:59:52;;;;;;;5.17;4.03;;;;;;;;;;5054138;28;20460;-69
2021/11/21 13:02:26;;;;;;;5.13;3.93;;;;;;;;;;5031081;28;20446;-68
2021/11/21 13:04:55;;;;;;;7.43;5.10;;;;;;;;;;5069113;28;20825;-68
2021/11/21 13:07:29;;;;;;;4.77;3.80;;;;;;;;;;5048936;28;20445;-69
2021/11/21 13:09:59;;;;;;;6.13;4.30;;;;;;;;;;5056986;28;20606;-69
2021/11/21 13:12:27;;;;;;;4.90;3.60;;;;;;;;;;5048322;28;20503;-69
2021/11/21 13:14:58;;;;;;;6.23;4.40;;;;;;;;;;5068897;28;20452;-68
2021/11/21 13:17:27;;;;;;;5.40;4.10;;;;;;;;;;5049026;28;20874;-68
2021/11/21 13:20:16;;;;;;;5.60;4.67;;;;;;;;;;5049867;28;20448;-69
2021/11/21 13:23:04;;;;;;;5.30;4.10;;;;;;;;;;5043530;28;20531;-69
2021/11/21 13:25:52;;;;;;;5.27;4.10;;;;;;;;;;5036504;28;20535;-68
2021/11/21 13:28:37;;;;;;;8.00;4.13;;;;;;;;;;5043153;28;20606;-68
2021/11/21 13:31:06;;;;;;;7.27;4.53;;;;;;;;;;5071688;28;20476;-68
2021/11/21 13:33:39;;;;;;;4.90;3.63;;;;;;;;;;5064050;28;20622;-69
2021/11/21 13:36:12;;;;;;;5.83;4.07;;;;;;;;;;5072112;28;20798;-69
2021/11/21 13:38:54;;;;;;;5.87;4.57;;;;;;;;;;5055790;28;20514;-69
2021/11/21 13:41:22;;;;;;;7.13;4.33;;;;;;;;;;5048561;28;20838;-68
2021/11/21 13:43:53;;;;;;;6.97;4.33;;;;;;;;;;5064107;28;20468;-69
2021/11/21 13:46:31;;;;;;;5.17;4.40;;;;;;;;;;5079545;28;20449;-68
2021/11/21 13:49:00;;;;;;;7.00;5.00;;;;;;;;;;5065789;28;20857;-68
2021/11/21 13:51:29;;;;;;;7.17;5.20;;;;;;;;;;5058255;28;20441;-68
2021/11/21 13:53:57;;;;;;;8.97;5.10;;;;;;;;;;5041519;28;20457;-68
2021/11/21 13:56:31;;;;;;;6.00;4.87;;;;;;;;;;5035265;28;20764;-68
2021/11/21 13:59:08;;;;;;;7.33;5.57;;;;;;;;;;5038453;28;20861;-68
2021/11/21 14:01:44;;;;;;;8.33;4.33;;;;;;;;;;5038348;28;20500;-68
2021/11/21 14:04:16;;;;;;;9.20;5.63;;;;;;;;;;5050839;28;20455;-68
2021/11/21 14:06:43;;;;;;;6.27;4.80;;;;;;;;;;5051563;28;20848;-67
2021/11/21 14:09:14;;;;;;;7.17;5.10;;;;;;;;;;5053313;28;20917;-68
2021/11/21 14:11:43;;;;;;;6.63;4.77;;;;;;;;;;5053101;28;20498;-67
2021/11/21 14:14:11;;;;;;;6.47;4.97;;;;;;;;;;5066922;28;20471;-68
2021/11/21 14:16:45;;;;;;;6.60;4.90;;;;;;;;;;5064811;28;20956;-67
2021/11/21 14:19:28;;;;;;;8.50;4.83;;;;;;;;;;5057805;28;20469;-73
2021/11/21 14:22:05;;;;;;;8.30;5.00;;;;;;;;;;5069459;28;20432;-66
2021/11/21 14:24:40;;;;;;;9.53;5.80;;;;;;;;;;5048213;28;20437;-67
2021/11/21 14:27:14;;;;;;;8.37;6.00;;;;;;;;;;5063419;28;20435;-67
2021/11/21 14:29:52;;;;;;;9.23;6.00;;;;;;;;;;5063891;28;20556;-67
2021/11/21 14:32:20;;;;;;;7.87;5.67;;;;;;;;;;5066845;28;20906;-65
2021/11/21 14:34:48;;;;;;;7.77;5.40;;;;;;;;;;5068951;28;20433;-66
2021/11/21 14:37:17;;;;;;;9.63;6.67;;;;;;;;;;5068906;28;20440;-66
2021/11/21 14:39:46;;;;;;;8.60;5.80;;;;;;;;;;5068136;28;20437;-66
2021/11/21 14:42:28;;;;;;;9.00;5.50;;;;;;;;;;5053754;28;20437;-66
2021/11/21 14:44:56;;;;;;;8.20;7.30;;;;;;;;;;5064929;28;20448;-66
2021/11/21 14:47:23;;;;;;;7.70;5.70;;;;;;;;;;5069481;28;20780;-65
2021/11/21 14:49:52;;;;;;;10.53;7.20;;;;;;;;;;5068497;28;21011;-70
2021/11/21 14:52:21;;;;;;;9.40;7.17;;;;;;;;;;5069012;28;20502;-65
2021/11/21 14:54:50;;;;;;;11.40;8.03;;;;;;;;;;5069447;28;20436;-65
2021/11/21 14:57:20;;;;;;;12.70;9.00;;;;;;;;;;5069704;28;20464;-66
2021/11/21 14:59:47;;;;;;;10.27;8.60;;;;;;;;;;5068752;28;20920;-66
2021/11/21 15:02:16;;;;;;;9.73;7.63;;;;;;;;;;5069513;28;20472;-66